< < Back
Terminal Aerodrome Forecast


Current Version              Previous Versions:   1  2  3  4  5  6  7  8  9  

Terminal Aerodrome Forecast

319
FTUS42 KJAX 302320
TAFJAX
TAF
KJAX 302320Z 0100/0124 27007KT P6SM FEW035 SCT060 BKN100
     FM010200 21004KT P6SM SCT060 BKN120
      TEMPO 0107/0111 3SM BR
     FM011400 24007KT P6SM SCT030 BKN050
     FM011800 25010KT P6SM VCTS BKN035CB
     FM012300 22006KT P6SM SCT040 BKN120=



Latest METAR

829
SAUS80 KWBC 302300
MTRJAX
METAR KJAX 302256Z 27007KT 10SM FEW035 FEW130 BKN250 27/22 A3003 RMK AO2
SLP168 T02720217 $


USA.gov is the U.S. government's official web portal to all federal, state and local government web resources and services.